Main page
METAR-TAF:

METAR-TAF

Airports :

Whiting_Field_Naval_Air_Station_South_Airport

Milton, Florida, United States

latitude: 30-41-50N, longitude: 087-01-12W, elevation: 177 ft

Current weather observation

The report was made 57 minutes ago, at 07:56 UTC
Wind 6 mph from the East
Temperature 66°F
Humidity 88%
Pressure 30.07 in. Hg
Visibility: 10 miles
Clear sky

METAR: KNDZ 180756Z AUTO 10005KT 10SM CLR 19/17 A3007 RMK AO2 SLP166 T01890167

Time: 03:53 (08:53 UTC)


TAF: missing

Weather observations and forecasts of more than 4000 airports (METAR and TAF reports).

The available stations are represented by yellow and red dots on the map.

Hover mouse over dot to see the name of the station.

Then click to see weather observations and forecasts.

To change the map : click on the green buttons with a black cross to zoom in, on the green button with a dash to zoom out, or on the green arrows for adjacent maps.


METAR-TAF: